sensor_id;sensor_type;location;lat;lon;timestamp;P1;durP1;ratioP1;P2;durP2;ratioP2
3095;SDS011;1558;42.700;23.360;2023-02-17T00:02:27;244.77;;;179.83;;
3095;SDS011;1558;42.700;23.360;2023-02-17T00:04:54;245.87;;;172.07;;
3095;SDS011;1558;42.700;23.360;2023-02-17T00:07:24;250.10;;;178.17;;
3095;SDS011;1558;42.700;23.360;2023-02-17T00:09:56;253.20;;;184.43;;
3095;SDS011;1558;42.700;23.360;2023-02-17T00:12:24;253.97;;;187.07;;
3095;SDS011;1558;42.700;23.360;2023-02-17T00:14:53;268.33;;;192.60;;
3095;SDS011;1558;42.700;23.360;2023-02-17T00:17:21;263.80;;;188.50;;
3095;SDS011;1558;42.700;23.360;2023-02-17T00:19:49;228.37;;;158.60;;
3095;SDS011;1558;42.700;23.360;2023-02-17T00:22:16;177.70;;;127.80;;
3095;SDS011;1558;42.700;23.360;2023-02-17T00:24:46;140.03;;;98.37;;
3095;SDS011;1558;42.700;23.360;2023-02-17T00:27:13;99.30;;;73.57;;
3095;SDS011;1558;42.700;23.360;2023-02-17T00:29:41;108.47;;;73.17;;
3095;SDS011;1558;42.700;23.360;2023-02-17T00:32:09;78.23;;;52.03;;
3095;SDS011;1558;42.700;23.360;2023-02-17T00:34:38;68.17;;;47.73;;
3095;SDS011;1558;42.700;23.360;2023-02-17T00:37:06;74.53;;;51.13;;
3095;SDS011;1558;42.700;23.360;2023-02-17T00:39:33;53.67;;;37.97;;
3095;SDS011;1558;42.700;23.360;2023-02-17T00:42:03;51.83;;;35.93;;
3095;SDS011;1558;42.700;23.360;2023-02-17T00:44:31;144.03;;;97.67;;
3095;SDS011;1558;42.700;23.360;2023-02-17T00:46:59;109.20;;;77.83;;
3095;SDS011;1558;42.700;23.360;2023-02-17T00:49:27;81.90;;;57.63;;
3095;SDS011;1558;42.700;23.360;2023-02-17T00:51:57;76.97;;;54.50;;
3095;SDS011;1558;42.700;23.360;2023-02-17T00:54:26;65.83;;;49.20;;
3095;SDS011;1558;42.700;23.360;2023-02-17T00:56:54;73.30;;;50.57;;
3095;SDS011;1558;42.700;23.360;2023-02-17T00:59:23;73.90;;;52.33;;
3095;SDS011;1558;42.700;23.360;2023-02-17T01:01:51;64.53;;;48.20;;
3095;SDS011;1558;42.700;23.360;2023-02-17T01:04:19;68.60;;;49.60;;
3095;SDS011;1558;42.700;23.360;2023-02-17T01:06:47;68.77;;;49.60;;
3095;SDS011;1558;42.700;23.360;2023-02-17T01:09:15;72.13;;;50.00;;
3095;SDS011;1558;42.700;23.360;2023-02-17T01:11:43;75.27;;;52.87;;
3095;SDS011;1558;42.700;23.360;2023-02-17T01:14:12;80.70;;;54.57;;
3095;SDS011;1558;42.700;23.360;2023-02-17T01:16:43;91.47;;;62.77;;
3095;SDS011;1558;42.700;23.360;2023-02-17T01:19:16;84.77;;;61.30;;
3095;SDS011;1558;42.700;23.360;2023-02-17T01:21:44;82.17;;;60.20;;
3095;SDS011;1558;42.700;23.360;2023-02-17T01:24:12;88.03;;;61.27;;
3095;SDS011;1558;42.700;23.360;2023-02-17T01:26:40;81.07;;;55.47;;
3095;SDS011;1558;42.700;23.360;2023-02-17T01:29:08;75.60;;;52.70;;
3095;SDS011;1558;42.700;23.360;2023-02-17T01:31:36;67.93;;;46.00;;
3095;SDS011;1558;42.700;23.360;2023-02-17T01:34:09;63.20;;;43.47;;
3095;SDS011;1558;42.700;23.360;2023-02-17T01:36:37;59.90;;;42.90;;
3095;SDS011;1558;42.700;23.360;2023-02-17T01:39:05;60.47;;;41.53;;
3095;SDS011;1558;42.700;23.360;2023-02-17T01:41:33;57.43;;;39.67;;
3095;SDS011;1558;42.700;23.360;2023-02-17T01:44:05;55.33;;;40.03;;
3095;SDS011;1558;42.700;23.360;2023-02-17T01:46:35;53.27;;;40.00;;
3095;SDS011;1558;42.700;23.360;2023-02-17T01:49:09;53.53;;;38.93;;
3095;SDS011;1558;42.700;23.360;2023-02-17T01:51:54;55.47;;;40.67;;
3095;SDS011;1558;42.700;23.360;2023-02-17T01:54:27;57.77;;;40.80;;
3095;SDS011;1558;42.700;23.360;2023-02-17T01:56:57;62.30;;;44.17;;
3095;SDS011;1558;42.700;23.360;2023-02-17T01:59:28;71.07;;;52.33;;
3095;SDS011;1558;42.700;23.360;2023-02-17T02:01:58;76.63;;;55.90;;
3095;SDS011;1558;42.700;23.360;2023-02-17T02:04:32;72.33;;;50.63;;
3095;SDS011;1558;42.700;23.360;2023-02-17T02:07:03;69.10;;;50.27;;
3095;SDS011;1558;42.700;23.360;2023-02-17T02:09:37;57.87;;;41.70;;
3095;SDS011;1558;42.700;23.360;2023-02-17T02:12:18;59.03;;;43.03;;
3095;SDS011;1558;42.700;23.360;2023-02-17T02:14:49;66.87;;;47.23;;
3095;SDS011;1558;42.700;23.360;2023-02-17T02:17:21;69.07;;;47.80;;
3095;SDS011;1558;42.700;23.360;2023-02-17T02:26:13;60.30;;;44.27;;
3095;SDS011;1558;42.700;23.360;2023-02-17T02:29:10;61.07;;;44.33;;
3095;SDS011;1558;42.700;23.360;2023-02-17T02:31:53;61.00;;;45.00;;
3095;SDS011;1558;42.700;23.360;2023-02-17T02:34:36;64.17;;;45.17;;
3095;SDS011;1558;42.700;23.360;2023-02-17T02:37:11;67.60;;;46.60;;
3095;SDS011;1558;42.700;23.360;2023-02-17T02:39:45;63.70;;;45.13;;
3095;SDS011;1558;42.700;23.360;2023-02-17T02:42:15;66.57;;;46.23;;
3095;SDS011;1558;42.700;23.360;2023-02-17T02:44:47;71.57;;;49.33;;
3095;SDS011;1558;42.700;23.360;2023-02-17T02:50:10;71.90;;;46.80;;
3095;SDS011;1558;42.700;23.360;2023-02-17T02:52:42;72.37;;;50.47;;
3095;SDS011;1558;42.700;23.360;2023-02-17T02:55:19;72.67;;;48.50;;
3095;SDS011;1558;42.700;23.360;2023-02-17T02:57:52;69.60;;;48.23;;
3095;SDS011;1558;42.700;23.360;2023-02-17T03:00:28;72.20;;;51.67;;
3095;SDS011;1558;42.700;23.360;2023-02-17T03:03:04;77.73;;;52.67;;
3095;SDS011;1558;42.700;23.360;2023-02-17T03:05:43;88.73;;;62.07;;
3095;SDS011;1558;42.700;23.360;2023-02-17T03:08:19;80.43;;;55.20;;
3095;SDS011;1558;42.700;23.360;2023-02-17T03:10:53;74.57;;;51.60;;
3095;SDS011;1558;42.700;23.360;2023-02-17T03:13:22;74.57;;;49.53;;
3095;SDS011;1558;42.700;23.360;2023-02-17T03:15:49;69.87;;;48.83;;
3095;SDS011;1558;42.700;23.360;2023-02-17T03:18:17;73.63;;;51.27;;
3095;SDS011;1558;42.700;23.360;2023-02-17T03:20:49;72.30;;;51.93;;
3095;SDS011;1558;42.700;23.360;2023-02-17T03:23:19;69.83;;;51.63;;
3095;SDS011;1558;42.700;23.360;2023-02-17T03:25:47;71.93;;;50.33;;
3095;SDS011;1558;42.700;23.360;2023-02-17T03:28:15;77.43;;;51.23;;
3095;SDS011;1558;42.700;23.360;2023-02-17T03:30:43;76.83;;;51.87;;
3095;SDS011;1558;42.700;23.360;2023-02-17T03:33:11;74.23;;;50.70;;
3095;SDS011;1558;42.700;23.360;2023-02-17T03:35:39;85.73;;;58.20;;
3095;SDS011;1558;42.700;23.360;2023-02-17T03:38:08;85.13;;;56.70;;
3095;SDS011;1558;42.700;23.360;2023-02-17T03:40:36;113.73;;;76.83;;
3095;SDS011;1558;42.700;23.360;2023-02-17T03:43:04;84.80;;;59.03;;
3095;SDS011;1558;42.700;23.360;2023-02-17T03:45:34;88.40;;;59.17;;
3095;SDS011;1558;42.700;23.360;2023-02-17T03:48:02;81.47;;;59.13;;
3095;SDS011;1558;42.700;23.360;2023-02-17T03:50:31;80.07;;;55.30;;
3095;SDS011;1558;42.700;23.360;2023-02-17T03:52:59;75.70;;;52.47;;
3095;SDS011;1558;42.700;23.360;2023-02-17T03:55:28;80.83;;;57.23;;
3095;SDS011;1558;42.700;23.360;2023-02-17T03:57:56;71.50;;;50.30;;
3095;SDS011;1558;42.700;23.360;2023-02-17T04:00:23;78.70;;;54.27;;
3095;SDS011;1558;42.700;23.360;2023-02-17T04:02:51;58.60;;;41.33;;
3095;SDS011;1558;42.700;23.360;2023-02-17T04:05:19;62.20;;;43.53;;
3095;SDS011;1558;42.700;23.360;2023-02-17T04:07:47;64.53;;;45.20;;
3095;SDS011;1558;42.700;23.360;2023-02-17T04:10:15;69.30;;;45.80;;
3095;SDS011;1558;42.700;23.360;2023-02-17T04:12:45;63.90;;;45.47;;
3095;SDS011;1558;42.700;23.360;2023-02-17T04:15:13;69.17;;;46.87;;
3095;SDS011;1558;42.700;23.360;2023-02-17T04:17:40;70.00;;;47.40;;
3095;SDS011;1558;42.700;23.360;2023-02-17T04:20:09;62.20;;;43.93;;
3095;SDS011;1558;42.700;23.360;2023-02-17T04:22:37;60.73;;;44.07;;
3095;SDS011;1558;42.700;23.360;2023-02-17T04:25:05;59.93;;;41.97;;
3095;SDS011;1558;42.700;23.360;2023-02-17T04:27:33;62.97;;;44.67;;
3095;SDS011;1558;42.700;23.360;2023-02-17T04:30:03;63.37;;;44.03;;
3095;SDS011;1558;42.700;23.360;2023-02-17T04:32:32;64.77;;;46.30;;
3095;SDS011;1558;42.700;23.360;2023-02-17T04:35:00;65.20;;;46.87;;
3095;SDS011;1558;42.700;23.360;2023-02-17T04:37:28;64.77;;;45.50;;
3095;SDS011;1558;42.700;23.360;2023-02-17T04:39:56;66.30;;;45.27;;
3095;SDS011;1558;42.700;23.360;2023-02-17T04:42:24;61.00;;;45.20;;
3095;SDS011;1558;42.700;23.360;2023-02-17T04:44:52;59.10;;;41.93;;
3095;SDS011;1558;42.700;23.360;2023-02-17T04:47:21;54.90;;;37.33;;
3095;SDS011;1558;42.700;23.360;2023-02-17T04:49:49;53.27;;;37.67;;
3095;SDS011;1558;42.700;23.360;2023-02-17T04:52:17;53.77;;;38.60;;
3095;SDS011;1558;42.700;23.360;2023-02-17T04:54:45;53.20;;;38.27;;
3095;SDS011;1558;42.700;23.360;2023-02-17T04:57:12;59.20;;;41.33;;
3095;SDS011;1558;42.700;23.360;2023-02-17T04:59:40;58.93;;;40.27;;
3095;SDS011;1558;42.700;23.360;2023-02-17T05:02:08;63.53;;;44.90;;
3095;SDS011;1558;42.700;23.360;2023-02-17T05:04:37;64.10;;;47.40;;
3095;SDS011;1558;42.700;23.360;2023-02-17T05:07:05;63.43;;;46.90;;
3095;SDS011;1558;42.700;23.360;2023-02-17T05:09:33;60.93;;;44.77;;
3095;SDS011;1558;42.700;23.360;2023-02-17T05:12:01;56.30;;;40.30;;
3095;SDS011;1558;42.700;23.360;2023-02-17T05:14:31;63.00;;;46.10;;
3095;SDS011;1558;42.700;23.360;2023-02-17T05:16:59;67.33;;;46.37;;
3095;SDS011;1558;42.700;23.360;2023-02-17T05:19:27;54.43;;;42.43;;
3095;SDS011;1558;42.700;23.360;2023-02-17T05:21:56;50.63;;;36.43;;
3095;SDS011;1558;42.700;23.360;2023-02-17T05:24:24;47.60;;;33.23;;
3095;SDS011;1558;42.700;23.360;2023-02-17T05:26:52;49.37;;;37.00;;
3095;SDS011;1558;42.700;23.360;2023-02-17T05:29:20;48.33;;;35.63;;
3095;SDS011;1558;42.700;23.360;2023-02-17T05:31:48;49.13;;;34.73;;
3095;SDS011;1558;42.700;23.360;2023-02-17T05:34:16;52.20;;;40.43;;
3095;SDS011;1558;42.700;23.360;2023-02-17T05:36:44;53.53;;;38.97;;
3095;SDS011;1558;42.700;23.360;2023-02-17T05:39:13;53.00;;;38.00;;
3095;SDS011;1558;42.700;23.360;2023-02-17T05:41:41;46.23;;;35.00;;
3095;SDS011;1558;42.700;23.360;2023-02-17T05:44:09;56.07;;;40.63;;
3095;SDS011;1558;42.700;23.360;2023-02-17T05:46:39;46.57;;;35.13;;
3095;SDS011;1558;42.700;23.360;2023-02-17T05:49:07;37.77;;;27.77;;
3095;SDS011;1558;42.700;23.360;2023-02-17T05:51:35;50.80;;;37.03;;
3095;SDS011;1558;42.700;23.360;2023-02-17T05:54:03;39.73;;;26.00;;
3095;SDS011;1558;42.700;23.360;2023-02-17T05:56:33;37.50;;;25.37;;
3095;SDS011;1558;42.700;23.360;2023-02-17T05:59:01;38.60;;;25.47;;
3095;SDS011;1558;42.700;23.360;2023-02-17T06:01:29;35.70;;;25.40;;
3095;SDS011;1558;42.700;23.360;2023-02-17T06:03:57;39.33;;;29.30;;
3095;SDS011;1558;42.700;23.360;2023-02-17T06:06:25;46.57;;;33.53;;
3095;SDS011;1558;42.700;23.360;2023-02-17T06:08:53;45.80;;;33.10;;
3095;SDS011;1558;42.700;23.360;2023-02-17T06:11:21;46.50;;;34.60;;
3095;SDS011;1558;42.700;23.360;2023-02-17T06:13:50;46.33;;;33.43;;
3095;SDS011;1558;42.700;23.360;2023-02-17T06:16:18;49.60;;;37.33;;
3095;SDS011;1558;42.700;23.360;2023-02-17T06:18:46;51.23;;;37.97;;
3095;SDS011;1558;42.700;23.360;2023-02-17T06:21:14;48.07;;;36.37;;
3095;SDS011;1558;42.700;23.360;2023-02-17T06:23:42;51.67;;;38.43;;
3095;SDS011;1558;42.700;23.360;2023-02-17T06:26:10;53.73;;;39.00;;
3095;SDS011;1558;42.700;23.360;2023-02-17T06:28:39;47.33;;;37.87;;
3095;SDS011;1558;42.700;23.360;2023-02-17T06:31:08;54.87;;;40.63;;
3095;SDS011;1558;42.700;23.360;2023-02-17T06:33:36;46.17;;;35.93;;
3095;SDS011;1558;42.700;23.360;2023-02-17T06:36:04;48.80;;;39.10;;
3095;SDS011;1558;42.700;23.360;2023-02-17T06:38:33;50.60;;;39.57;;
3095;SDS011;1558;42.700;23.360;2023-02-17T06:41:02;50.23;;;41.70;;
3095;SDS011;1558;42.700;23.360;2023-02-17T06:43:29;55.07;;;41.80;;
3095;SDS011;1558;42.700;23.360;2023-02-17T06:45:57;52.87;;;40.53;;
3095;SDS011;1558;42.700;23.360;2023-02-17T06:48:27;54.70;;;42.90;;
3095;SDS011;1558;42.700;23.360;2023-02-17T06:50:58;54.33;;;41.10;;
3095;SDS011;1558;42.700;23.360;2023-02-17T06:53:26;49.47;;;40.27;;
3095;SDS011;1558;42.700;23.360;2023-02-17T06:55:54;54.67;;;47.17;;
3095;SDS011;1558;42.700;23.360;2023-02-17T06:58:22;57.43;;;45.20;;
3095;SDS011;1558;42.700;23.360;2023-02-17T07:00:50;62.10;;;51.87;;
3095;SDS011;1558;42.700;23.360;2023-02-17T07:03:18;53.93;;;47.33;;
3095;SDS011;1558;42.700;23.360;2023-02-17T07:05:47;67.53;;;56.17;;
3095;SDS011;1558;42.700;23.360;2023-02-17T07:08:15;76.97;;;62.10;;
3095;SDS011;1558;42.700;23.360;2023-02-17T07:10:43;106.50;;;87.33;;
3095;SDS011;1558;42.700;23.360;2023-02-17T07:13:11;120.70;;;107.30;;
3095;SDS011;1558;42.700;23.360;2023-02-17T07:15:38;114.90;;;97.10;;
3095;SDS011;1558;42.700;23.360;2023-02-17T07:18:06;110.40;;;94.57;;
3095;SDS011;1558;42.700;23.360;2023-02-17T07:20:34;96.27;;;80.60;;
3095;SDS011;1558;42.700;23.360;2023-02-17T07:23:06;59.50;;;50.27;;
3095;SDS011;1558;42.700;23.360;2023-02-17T07:25:33;58.90;;;48.33;;
3095;SDS011;1558;42.700;23.360;2023-02-17T07:28:01;50.87;;;44.23;;
3095;SDS011;1558;42.700;23.360;2023-02-17T07:30:29;53.67;;;43.07;;
3095;SDS011;1558;42.700;23.360;2023-02-17T07:32:57;53.83;;;43.10;;
3095;SDS011;1558;42.700;23.360;2023-02-17T07:35:25;48.90;;;40.07;;
3095;SDS011;1558;42.700;23.360;2023-02-17T07:37:55;48.53;;;42.30;;
3095;SDS011;1558;42.700;23.360;2023-02-17T07:40:25;52.10;;;40.80;;
3095;SDS011;1558;42.700;23.360;2023-02-17T07:42:55;50.27;;;39.40;;
3095;SDS011;1558;42.700;23.360;2023-02-17T07:45:23;50.07;;;40.00;;
3095;SDS011;1558;42.700;23.360;2023-02-17T07:47:51;51.97;;;38.90;;
3095;SDS011;1558;42.700;23.360;2023-02-17T07:50:19;47.47;;;38.57;;
3095;SDS011;1558;42.700;23.360;2023-02-17T07:52:46;41.67;;;33.97;;
3095;SDS011;1558;42.700;23.360;2023-02-17T07:55:14;39.90;;;35.80;;
3095;SDS011;1558;42.700;23.360;2023-02-17T07:57:44;48.20;;;41.13;;
3095;SDS011;1558;42.700;23.360;2023-02-17T08:00:12;47.57;;;40.20;;
3095;SDS011;1558;42.700;23.360;2023-02-17T08:02:41;56.93;;;41.60;;
3095;SDS011;1558;42.700;23.360;2023-02-17T08:05:09;45.17;;;39.33;;
3095;SDS011;1558;42.700;23.360;2023-02-17T08:07:37;50.40;;;36.97;;
3095;SDS011;1558;42.700;23.360;2023-02-17T08:10:05;41.80;;;35.30;;
3095;SDS011;1558;42.700;23.360;2023-02-17T08:12:52;47.87;;;35.37;;
3095;SDS011;1558;42.700;23.360;2023-02-17T08:15:37;43.23;;;32.27;;
3095;SDS011;1558;42.700;23.360;2023-02-17T08:18:06;45.57;;;31.90;;
3095;SDS011;1558;42.700;23.360;2023-02-17T08:20:34;45.20;;;30.97;;
3095;SDS011;1558;42.700;23.360;2023-02-17T08:23:02;40.93;;;31.87;;
3095;SDS011;1558;42.700;23.360;2023-02-17T08:25:30;58.77;;;33.67;;
3095;SDS011;1558;42.700;23.360;2023-02-17T08:28:01;43.70;;;33.17;;
3095;SDS011;1558;42.700;23.360;2023-02-17T08:30:33;43.50;;;36.42;;
3095;SDS011;1558;42.700;23.360;2023-02-17T08:33:03;48.05;;;35.33;;
3095;SDS011;1558;42.700;23.360;2023-02-17T08:35:31;48.97;;;36.85;;
3095;SDS011;1558;42.700;23.360;2023-02-17T08:37:59;68.57;;;38.95;;
3095;SDS011;1558;42.700;23.360;2023-02-17T08:40:27;47.22;;;35.63;;
3095;SDS011;1558;42.700;23.360;2023-02-17T08:42:55;52.75;;;38.08;;
3095;SDS011;1558;42.700;23.360;2023-02-17T08:45:24;51.85;;;37.13;;
3095;SDS011;1558;42.700;23.360;2023-02-17T08:47:52;47.40;;;37.00;;
3095;SDS011;1558;42.700;23.360;2023-02-17T08:50:21;53.65;;;36.42;;
3095;SDS011;1558;42.700;23.360;2023-02-17T08:52:49;47.15;;;36.42;;
3095;SDS011;1558;42.700;23.360;2023-02-17T08:55:17;50.58;;;35.08;;
3095;SDS011;1558;42.700;23.360;2023-02-17T08:57:45;40.17;;;33.90;;
3095;SDS011;1558;42.700;23.360;2023-02-17T09:00:14;43.50;;;34.90;;
3095;SDS011;1558;42.700;23.360;2023-02-17T09:02:45;55.92;;;37.70;;
3095;SDS011;1558;42.700;23.360;2023-02-17T09:05:13;56.63;;;38.42;;
3095;SDS011;1558;42.700;23.360;2023-02-17T09:07:41;47.33;;;38.97;;
3095;SDS011;1558;42.700;23.360;2023-02-17T09:10:10;54.13;;;40.75;;
3095;SDS011;1558;42.700;23.360;2023-02-17T09:12:40;60.45;;;42.00;;
3095;SDS011;1558;42.700;23.360;2023-02-17T09:15:08;48.13;;;39.60;;
3095;SDS011;1558;42.700;23.360;2023-02-17T09:17:37;54.78;;;40.15;;
3095;SDS011;1558;42.700;23.360;2023-02-17T09:20:08;47.45;;;37.85;;
3095;SDS011;1558;42.700;23.360;2023-02-17T09:22:49;54.72;;;38.13;;
3095;SDS011;1558;42.700;23.360;2023-02-17T09:25:18;47.95;;;36.13;;
3095;SDS011;1558;42.700;23.360;2023-02-17T09:27:46;54.10;;;37.88;;
3095;SDS011;1558;42.700;23.360;2023-02-17T09:30:14;45.13;;;34.33;;
3095;SDS011;1558;42.700;23.360;2023-02-17T09:32:42;38.47;;;32.90;;
3095;SDS011;1558;42.700;23.360;2023-02-17T09:35:13;49.83;;;34.90;;
3095;SDS011;1558;42.700;23.360;2023-02-17T09:37:42;44.08;;;32.25;;
3095;SDS011;1558;42.700;23.360;2023-02-17T09:40:14;44.40;;;29.63;;
3095;SDS011;1558;42.700;23.360;2023-02-17T09:42:44;33.47;;;27.00;;
3095;SDS011;1558;42.700;23.360;2023-02-17T09:45:15;32.25;;;21.63;;
3095;SDS011;1558;42.700;23.360;2023-02-17T09:47:48;26.60;;;17.48;;
3095;SDS011;1558;42.700;23.360;2023-02-17T09:50:20;15.38;;;10.88;;
3095;SDS011;1558;42.700;23.360;2023-02-17T09:52:52;11.68;;;9.60;;
3095;SDS011;1558;42.700;23.360;2023-02-17T09:55:26;12.57;;;9.43;;
3095;SDS011;1558;42.700;23.360;2023-02-17T09:57:58;10.95;;;9.80;;
3095;SDS011;1558;42.700;23.360;2023-02-17T10:00:31;11.73;;;8.88;;
3095;SDS011;1558;42.700;23.360;2023-02-17T10:03:03;11.70;;;9.00;;
3095;SDS011;1558;42.700;23.360;2023-02-17T10:05:44;14.30;;;9.63;;
3095;SDS011;1558;42.700;23.360;2023-02-17T10:08:16;11.35;;;8.82;;
3095;SDS011;1558;42.700;23.360;2023-02-17T10:10:49;9.90;;;8.88;;
3095;SDS011;1558;42.700;23.360;2023-02-17T10:13:21;13.30;;;8.50;;
3095;SDS011;1558;42.700;23.360;2023-02-17T10:15:53;9.70;;;8.82;;
3095;SDS011;1558;42.700;23.360;2023-02-17T10:18:29;9.95;;;9.00;;
3095;SDS011;1558;42.700;23.360;2023-02-17T10:21:03;12.85;;;10.02;;
3095;SDS011;1558;42.700;23.360;2023-02-17T10:23:33;14.05;;;9.32;;
3095;SDS011;1558;42.700;23.360;2023-02-17T10:26:06;11.23;;;9.00;;
3095;SDS011;1558;42.700;23.360;2023-02-17T10:28:46;15.43;;;9.55;;
3095;SDS011;1558;42.700;23.360;2023-02-17T10:31:27;11.38;;;9.77;;
3095;SDS011;1558;42.700;23.360;2023-02-17T10:34:04;13.45;;;8.73;;
3095;SDS011;1558;42.700;23.360;2023-02-17T10:36:45;13.00;;;8.93;;
3095;SDS011;1558;42.700;23.360;2023-02-17T10:39:37;16.25;;;8.90;;
3095;SDS011;1558;42.700;23.360;2023-02-17T10:42:15;14.70;;;8.90;;
3095;SDS011;1558;42.700;23.360;2023-02-17T10:44:48;11.88;;;7.85;;
3095;SDS011;1558;42.700;23.360;2023-02-17T10:47:19;9.60;;;7.63;;
3095;SDS011;1558;42.700;23.360;2023-02-17T10:49:49;10.60;;;7.88;;
3095;SDS011;1558;42.700;23.360;2023-02-17T10:52:21;10.02;;;7.70;;
3095;SDS011;1558;42.700;23.360;2023-02-17T10:54:51;7.65;;;6.95;;
3095;SDS011;1558;42.700;23.360;2023-02-17T10:57:25;15.50;;;7.40;;
3095;SDS011;1558;42.700;23.360;2023-02-17T10:59:57;8.93;;;6.82;;
3095;SDS011;1558;42.700;23.360;2023-02-17T11:02:27;8.27;;;6.45;;
3095;SDS011;1558;42.700;23.360;2023-02-17T11:05:03;10.38;;;6.72;;
3095;SDS011;1558;42.700;23.360;2023-02-17T11:07:34;13.18;;;7.00;;
3095;SDS011;1558;42.700;23.360;2023-02-17T11:10:15;9.20;;;6.07;;
3095;SDS011;1558;42.700;23.360;2023-02-17T11:12:48;8.40;;;6.57;;
3095;SDS011;1558;42.700;23.360;2023-02-17T11:15:17;12.30;;;6.47;;
3095;SDS011;1558;42.700;23.360;2023-02-17T11:17:48;8.98;;;6.53;;
3095;SDS011;1558;42.700;23.360;2023-02-17T11:20:31;12.80;;;6.72;;
3095;SDS011;1558;42.700;23.360;2023-02-17T11:23:07;9.52;;;6.57;;
3095;SDS011;1558;42.700;23.360;2023-02-17T11:25:55;10.38;;;6.80;;
3095;SDS011;1558;42.700;23.360;2023-02-17T11:28:26;17.60;;;6.50;;
3095;SDS011;1558;42.700;23.360;2023-02-17T11:30:55;7.55;;;6.50;;
3095;SDS011;1558;42.700;23.360;2023-02-17T11:33:33;11.27;;;6.95;;
3095;SDS011;1558;42.700;23.360;2023-02-17T11:36:03;8.55;;;6.35;;
3095;SDS011;1558;42.700;23.360;2023-02-17T11:38:41;9.40;;;6.88;;
3095;SDS011;1558;42.700;23.360;2023-02-17T11:41:10;11.05;;;6.82;;
3095;SDS011;1558;42.700;23.360;2023-02-17T11:43:42;9.68;;;7.85;;
3095;SDS011;1558;42.700;23.360;2023-02-17T11:46:27;8.00;;;7.22;;
3095;SDS011;1558;42.700;23.360;2023-02-17T11:49:02;8.18;;;7.13;;
3095;SDS011;1558;42.700;23.360;2023-02-17T11:51:55;10.75;;;7.18;;
3095;SDS011;1558;42.700;23.360;2023-02-17T11:54:42;9.10;;;7.32;;
3095;SDS011;1558;42.700;23.360;2023-02-17T11:57:23;9.75;;;7.30;;
3095;SDS011;1558;42.700;23.360;2023-02-17T12:00:12;8.13;;;6.63;;
3095;SDS011;1558;42.700;23.360;2023-02-17T12:05:52;9.10;;;6.75;;
3095;SDS011;1558;42.700;23.360;2023-02-17T12:08:30;8.48;;;7.13;;
3095;SDS011;1558;42.700;23.360;2023-02-17T12:11:08;10.00;;;7.15;;
3095;SDS011;1558;42.700;23.360;2023-02-17T12:13:51;9.30;;;7.28;;
3095;SDS011;1558;42.700;23.360;2023-02-17T12:16:33;15.57;;;7.00;;
3095;SDS011;1558;42.700;23.360;2023-02-17T12:19:14;7.80;;;6.53;;
3095;SDS011;1558;42.700;23.360;2023-02-17T12:21:57;11.40;;;7.55;;
3095;SDS011;1558;42.700;23.360;2023-02-17T12:24:40;11.35;;;7.07;;
3095;SDS011;1558;42.700;23.360;2023-02-17T12:27:21;7.32;;;6.63;;
3095;SDS011;1558;42.700;23.360;2023-02-17T12:30:02;9.88;;;6.35;;
3095;SDS011;1558;42.700;23.360;2023-02-17T12:32:45;8.35;;;6.82;;
3095;SDS011;1558;42.700;23.360;2023-02-17T12:35:26;8.45;;;7.10;;
3095;SDS011;1558;42.700;23.360;2023-02-17T12:38:00;10.60;;;6.78;;
3095;SDS011;1558;42.700;23.360;2023-02-17T12:40:32;8.43;;;6.55;;
3095;SDS011;1558;42.700;23.360;2023-02-17T12:43:07;8.60;;;6.30;;
3095;SDS011;1558;42.700;23.360;2023-02-17T12:45:47;7.70;;;5.53;;
3095;SDS011;1558;42.700;23.360;2023-02-17T12:48:19;7.15;;;5.75;;
3095;SDS011;1558;42.700;23.360;2023-02-17T12:50:53;8.20;;;6.00;;
3095;SDS011;1558;42.700;23.360;2023-02-17T12:53:30;8.93;;;6.10;;
3095;SDS011;1558;42.700;23.360;2023-02-17T12:56:13;7.07;;;5.50;;
3095;SDS011;1558;42.700;23.360;2023-02-17T12:59:10;8.05;;;6.80;;
3095;SDS011;1558;42.700;23.360;2023-02-17T13:01:45;8.57;;;6.22;;
3095;SDS011;1558;42.700;23.360;2023-02-17T13:04:21;10.52;;;6.50;;
3095;SDS011;1558;42.700;23.360;2023-02-17T13:06:53;8.82;;;6.43;;
3095;SDS011;1558;42.700;23.360;2023-02-17T13:09:28;13.20;;;7.18;;
3095;SDS011;1558;42.700;23.360;2023-02-17T13:12:07;10.43;;;7.43;;
3095;SDS011;1558;42.700;23.360;2023-02-17T13:14:45;8.02;;;6.53;;
3095;SDS011;1558;42.700;23.360;2023-02-17T13:17:25;9.45;;;6.63;;
3095;SDS011;1558;42.700;23.360;2023-02-17T13:20:05;8.80;;;7.60;;
3095;SDS011;1558;42.700;23.360;2023-02-17T13:22:49;10.68;;;6.40;;
3095;SDS011;1558;42.700;23.360;2023-02-17T13:25:29;10.82;;;6.20;;
3095;SDS011;1558;42.700;23.360;2023-02-17T13:28:14;8.13;;;6.50;;
3095;SDS011;1558;42.700;23.360;2023-02-17T13:31:15;9.20;;;6.40;;
3095;SDS011;1558;42.700;23.360;2023-02-17T13:33:45;7.28;;;6.45;;
3095;SDS011;1558;42.700;23.360;2023-02-17T13:36:36;8.65;;;6.55;;
3095;SDS011;1558;42.700;23.360;2023-02-17T13:39:05;13.13;;;6.88;;
3095;SDS011;1558;42.700;23.360;2023-02-17T13:42:04;9.07;;;6.50;;
3095;SDS011;1558;42.700;23.360;2023-02-17T13:44:47;8.57;;;6.32;;
3095;SDS011;1558;42.700;23.360;2023-02-17T13:47:20;10.52;;;7.13;;
3095;SDS011;1558;42.700;23.360;2023-02-17T13:49:56;6.68;;;5.97;;
3095;SDS011;1558;42.700;23.360;2023-02-17T13:52:25;9.05;;;6.22;;
3095;SDS011;1558;42.700;23.360;2023-02-17T13:54:56;8.38;;;5.97;;
3095;SDS011;1558;42.700;23.360;2023-02-17T13:57:27;7.00;;;6.27;;
3095;SDS011;1558;42.700;23.360;2023-02-17T14:00:04;7.47;;;5.47;;
3095;SDS011;1558;42.700;23.360;2023-02-17T14:02:35;9.60;;;5.70;;
3095;SDS011;1558;42.700;23.360;2023-02-17T14:05:10;11.57;;;6.10;;
3095;SDS011;1558;42.700;23.360;2023-02-17T14:07:45;7.37;;;5.43;;
3095;SDS011;1558;42.700;23.360;2023-02-17T14:10:20;8.67;;;6.50;;
3095;SDS011;1558;42.700;23.360;2023-02-17T14:12:50;10.63;;;6.93;;
3095;SDS011;1558;42.700;23.360;2023-02-17T14:15:20;13.10;;;8.03;;
3095;SDS011;1558;42.700;23.360;2023-02-17T14:17:49;9.23;;;7.60;;
3095;SDS011;1558;42.700;23.360;2023-02-17T14:20:25;8.63;;;7.47;;
3095;SDS011;1558;42.700;23.360;2023-02-17T14:22:58;12.37;;;7.40;;
3095;SDS011;1558;42.700;23.360;2023-02-17T14:25:32;13.67;;;7.07;;
3095;SDS011;1558;42.700;23.360;2023-02-17T14:28:01;7.97;;;7.17;;
3095;SDS011;1558;42.700;23.360;2023-02-17T14:30:31;10.03;;;7.60;;
3095;SDS011;1558;42.700;23.360;2023-02-17T14:33:05;10.60;;;7.73;;
3095;SDS011;1558;42.700;23.360;2023-02-17T14:35:34;10.93;;;7.63;;
3095;SDS011;1558;42.700;23.360;2023-02-17T14:38:08;11.63;;;7.80;;
3095;SDS011;1558;42.700;23.360;2023-02-17T14:40:47;12.40;;;7.43;;
3095;SDS011;1558;42.700;23.360;2023-02-17T14:43:15;7.80;;;7.00;;
3095;SDS011;1558;42.700;23.360;2023-02-17T14:45:43;12.33;;;8.23;;
3095;SDS011;1558;42.700;23.360;2023-02-17T14:48:11;18.60;;;8.23;;
3095;SDS011;1558;42.700;23.360;2023-02-17T14:50:40;13.37;;;8.13;;
3095;SDS011;1558;42.700;23.360;2023-02-17T14:53:10;12.67;;;8.47;;
3095;SDS011;1558;42.700;23.360;2023-02-17T14:55:42;15.93;;;8.50;;
3095;SDS011;1558;42.700;23.360;2023-02-17T14:58:15;15.03;;;7.80;;
3095;SDS011;1558;42.700;23.360;2023-02-17T15:00:46;12.80;;;8.93;;
3095;SDS011;1558;42.700;23.360;2023-02-17T15:03:14;14.00;;;8.40;;
3095;SDS011;1558;42.700;23.360;2023-02-17T15:05:43;12.80;;;8.73;;
3095;SDS011;1558;42.700;23.360;2023-02-17T15:08:12;10.30;;;7.70;;
3095;SDS011;1558;42.700;23.360;2023-02-17T15:10:42;15.37;;;8.37;;
3095;SDS011;1558;42.700;23.360;2023-02-17T15:13:11;12.10;;;8.33;;
3095;SDS011;1558;42.700;23.360;2023-02-17T15:15:42;12.50;;;8.03;;
3095;SDS011;1558;42.700;23.360;2023-02-17T15:18:13;12.90;;;8.00;;
3095;SDS011;1558;42.700;23.360;2023-02-17T15:20:43;12.63;;;7.97;;